sensor_id;sensor_type;location;lat;lon;timestamp;pressure;altitude;pressure_sealevel;temperature;humidity
81232;BME280;70703;55.652;37.710;2023-11-19T00:00:09;101158.59;;;-4.55;58.30
81232;BME280;70703;55.652;37.710;2023-11-19T00:00:23;101167.22;;;-4.53;58.22
81232;BME280;70703;55.652;37.710;2023-11-19T00:00:35;101158.59;;;-4.55;58.10
81232;BME280;70703;55.652;37.710;2023-11-19T00:00:48;101160.31;;;-4.54;58.40
81232;BME280;70703;55.652;37.710;2023-11-19T00:01:00;101168.94;;;-4.52;58.10
81232;BME280;70703;55.652;37.710;2023-11-19T00:01:12;101165.53;;;-4.54;58.22
81232;BME280;70703;55.652;37.710;2023-11-19T00:01:24;101162.94;;;-4.54;58.27
81232;BME280;70703;55.652;37.710;2023-11-19T00:01:37;101140.00;;;-4.69;58.42
81232;BME280;70703;55.652;37.710;2023-11-19T00:01:48;101147.69;;;-4.66;58.14
81232;BME280;70703;55.652;37.710;2023-11-19T00:02:00;101162.94;;;-4.54;58.48
81232;BME280;70703;55.652;37.710;2023-11-19T00:02:13;101163.81;;;-4.55;58.38
81232;BME280;70703;55.652;37.710;2023-11-19T00:02:25;101164.72;;;-4.56;58.05
81232;BME280;70703;55.652;37.710;2023-11-19T00:02:38;101164.66;;;-4.54;58.37
81232;BME280;70703;55.652;37.710;2023-11-19T00:02:49;101169.03;;;-4.55;58.17
81232;BME280;70703;55.652;37.710;2023-11-19T00:03:02;101162.22;;;-4.59;58.40
81232;BME280;70703;55.652;37.710;2023-11-19T00:03:14;101161.22;;;-4.55;58.16
81232;BME280;70703;55.652;37.710;2023-11-19T00:03:26;101150.19;;;-4.63;58.23
81232;BME280;70703;55.652;37.710;2023-11-19T00:03:39;101157.06;;;-4.60;58.63
81232;BME280;70703;55.652;37.710;2023-11-19T00:03:52;101158.59;;;-4.55;58.55
81232;BME280;70703;55.652;37.710;2023-11-19T00:04:05;101166.44;;;-4.55;58.21
81232;BME280;70703;55.652;37.710;2023-11-19T00:04:17;101166.44;;;-4.55;58.41
81232;BME280;70703;55.652;37.710;2023-11-19T00:04:30;101158.59;;;-4.55;58.59
81232;BME280;70703;55.652;37.710;2023-11-19T00:04:44;101158.72;;;-4.58;58.33
81232;BME280;70703;55.652;37.710;2023-11-19T00:04:56;101162.13;;;-4.56;58.82
81232;BME280;70703;55.652;37.710;2023-11-19T00:05:09;101169.03;;;-4.55;58.34
81232;BME280;70703;55.652;37.710;2023-11-19T00:05:23;101109.34;;;-4.88;58.66
81232;BME280;70703;55.652;37.710;2023-11-19T00:05:34;101163.06;;;-4.58;58.79
81232;BME280;70703;55.652;37.710;2023-11-19T00:05:47;101109.44;;;-4.91;58.59
81232;BME280;70703;55.652;37.710;2023-11-19T00:05:59;101160.41;;;-4.57;58.64
81232;BME280;70703;55.652;37.710;2023-11-19T00:06:11;101141.78;;;-4.71;58.64
81232;BME280;70703;55.652;37.710;2023-11-19T00:06:23;101167.34;;;-4.56;58.60
81232;BME280;70703;55.652;37.710;2023-11-19T00:06:36;101160.41;;;-4.57;58.98
81232;BME280;70703;55.652;37.710;2023-11-19T00:06:47;101165.63;;;-4.57;58.71
81232;BME280;70703;55.652;37.710;2023-11-19T00:07:00;101157.78;;;-4.57;58.64
81232;BME280;70703;55.652;37.710;2023-11-19T00:07:14;101117.97;;;-4.86;58.86
81232;BME280;70703;55.652;37.710;2023-11-19T00:07:26;101162.13;;;-4.56;58.96
81232;BME280;70703;55.652;37.710;2023-11-19T00:07:38;101133.19;;;-4.73;58.65
81232;BME280;70703;55.652;37.710;2023-11-19T00:07:51;101164.91;;;-4.60;59.08
81232;BME280;70703;55.652;37.710;2023-11-19T00:08:04;101156.88;;;-4.56;58.71
81232;BME280;70703;55.652;37.710;2023-11-19T00:08:17;101162.22;;;-4.59;58.67
81232;BME280;70703;55.652;37.710;2023-11-19T00:08:29;101162.94;;;-4.55;58.89
81232;BME280;70703;55.652;37.710;2023-11-19T00:08:42;101157.78;;;-4.57;59.28
81232;BME280;70703;55.652;37.710;2023-11-19T00:08:54;101161.28;;;-4.56;59.09
81232;BME280;70703;55.652;37.710;2023-11-19T00:09:08;101155.19;;;-4.57;58.80
81232;BME280;70703;55.652;37.710;2023-11-19T00:09:20;101158.66;;;-4.56;58.90
81232;BME280;70703;55.652;37.710;2023-11-19T00:09:31;101159.56;;;-4.57;58.91
81232;BME280;70703;55.652;37.710;2023-11-19T00:09:44;101155.19;;;-4.57;58.68
81232;BME280;70703;55.652;37.710;2023-11-19T00:09:57;101160.41;;;-4.57;58.72
81232;BME280;70703;55.652;37.710;2023-11-19T00:10:10;101163.00;;;-4.57;58.93
81232;BME280;70703;55.652;37.710;2023-11-19T00:10:22;101156.06;;;-4.56;59.15
81232;BME280;70703;55.652;37.710;2023-11-19T00:10:35;101158.72;;;-4.58;59.05
81232;BME280;70703;55.652;37.710;2023-11-19T00:10:47;101162.13;;;-4.56;58.83
81232;BME280;70703;55.652;37.710;2023-11-19T00:11:00;101157.06;;;-4.60;58.92
81232;BME280;70703;55.652;37.710;2023-11-19T00:11:12;101161.28;;;-4.56;59.13
81232;BME280;70703;55.652;37.710;2023-11-19T00:11:28;101158.78;;;-4.59;59.12
81232;BME280;70703;55.652;37.710;2023-11-19T00:11:40;101147.53;;;-4.61;59.22
81232;BME280;70703;55.652;37.710;2023-11-19T00:11:52;101163.00;;;-4.57;59.20
81232;BME280;70703;55.652;37.710;2023-11-19T00:12:06;101151.91;;;-4.62;58.99
81232;BME280;70703;55.652;37.710;2023-11-19T00:12:18;101157.78;;;-4.57;59.16
81232;BME280;70703;55.652;37.710;2023-11-19T00:12:31;101157.78;;;-4.57;59.24
81232;BME280;70703;55.652;37.710;2023-11-19T00:12:44;101150.97;;;-4.61;59.07
81232;BME280;70703;55.652;37.710;2023-11-19T00:12:56;101149.34;;;-4.63;59.40
81232;BME280;70703;55.652;37.710;2023-11-19T00:13:08;101150.06;;;-4.60;59.09
81232;BME280;70703;55.652;37.710;2023-11-19T00:13:21;101162.94;;;-4.55;59.08
81232;BME280;70703;55.652;37.710;2023-11-19T00:13:32;101162.94;;;-4.55;59.41
81232;BME280;70703;55.652;37.710;2023-11-19T00:13:45;101159.50;;;-4.56;59.03
81232;BME280;70703;55.652;37.710;2023-11-19T00:13:58;101149.06;;;-4.56;59.18
81232;BME280;70703;55.652;37.710;2023-11-19T00:14:10;101158.59;;;-4.55;59.13
81232;BME280;70703;55.652;37.710;2023-11-19T00:14:23;101158.59;;;-4.55;59.39
81232;BME280;70703;55.652;37.710;2023-11-19T00:14:36;101156.84;;;-4.54;59.46
81232;BME280;70703;55.652;37.710;2023-11-19T00:14:47;101150.00;;;-4.58;59.19
81232;BME280;70703;55.652;37.710;2023-11-19T00:15:01;101151.78;;;-4.59;59.19
81232;BME280;70703;55.652;37.710;2023-11-19T00:15:13;101160.34;;;-4.55;59.24
81232;BME280;70703;55.652;37.710;2023-11-19T00:15:24;101120.91;;;-4.71;59.31
81232;BME280;70703;55.652;37.710;2023-11-19T00:15:37;101151.66;;;-4.56;59.45
81232;BME280;70703;55.652;37.710;2023-11-19T00:15:50;101153.38;;;-4.55;59.91
81232;BME280;70703;55.652;37.710;2023-11-19T00:16:05;101154.28;;;-4.56;59.77
81232;BME280;70703;55.652;37.710;2023-11-19T00:16:19;101148.28;;;-4.58;59.71
81232;BME280;70703;55.652;37.710;2023-11-19T00:16:32;101157.69;;;-4.54;59.38
81232;BME280;70703;55.652;37.710;2023-11-19T00:16:43;101159.50;;;-4.56;59.46
81232;BME280;70703;55.652;37.710;2023-11-19T00:16:55;101161.22;;;-4.55;59.66
81232;BME280;70703;55.652;37.710;2023-11-19T00:17:07;101132.94;;;-4.67;59.42
81232;BME280;70703;55.652;37.710;2023-11-19T00:17:20;101153.38;;;-4.55;59.65
81232;BME280;70703;55.652;37.710;2023-11-19T00:17:32;101153.59;;;-4.61;59.64
81232;BME280;70703;55.652;37.710;2023-11-19T00:17:45;101150.88;;;-4.58;59.46
81232;BME280;70703;55.652;37.710;2023-11-19T00:17:58;101158.59;;;-4.55;59.70
81232;BME280;70703;55.652;37.710;2023-11-19T00:18:10;101144.84;;;-4.60;59.45
81232;BME280;70703;55.652;37.710;2023-11-19T00:18:24;101146.38;;;-4.54;59.29
81232;BME280;70703;55.652;37.710;2023-11-19T00:18:36;101153.31;;;-4.53;59.36
81232;BME280;70703;55.652;37.710;2023-11-19T00:18:49;101154.16;;;-4.53;59.54
81232;BME280;70703;55.652;37.710;2023-11-19T00:19:03;101155.03;;;-4.52;59.63
81232;BME280;70703;55.652;37.710;2023-11-19T00:19:15;101149.00;;;-4.54;59.73
81232;BME280;70703;55.652;37.710;2023-11-19T00:19:28;101148.16;;;-4.55;59.64
81232;BME280;70703;55.652;37.710;2023-11-19T00:19:40;101099.50;;;-4.81;59.41
81232;BME280;70703;55.652;37.710;2023-11-19T00:19:53;101154.09;;;-4.51;59.38
81232;BME280;70703;55.652;37.710;2023-11-19T00:20:08;101135.31;;;-4.61;59.42
81232;BME280;70703;55.652;37.710;2023-11-19T00:20:21;101148.03;;;-4.52;59.59
81232;BME280;70703;55.652;37.710;2023-11-19T00:20:35;101151.50;;;-4.51;59.11
81232;BME280;70703;55.652;37.710;2023-11-19T00:20:47;101153.25;;;-4.52;59.35
81232;BME280;70703;55.652;37.710;2023-11-19T00:20:59;101147.28;;;-4.55;59.03
81232;BME280;70703;55.652;37.710;2023-11-19T00:21:13;101122.63;;;-4.70;59.12
81232;BME280;70703;55.652;37.710;2023-11-19T00:21:25;101152.31;;;-4.49;59.05
81232;BME280;70703;55.652;37.710;2023-11-19T00:21:39;101150.53;;;-4.49;59.31
81232;BME280;70703;55.652;37.710;2023-11-19T00:21:52;101153.13;;;-4.49;59.35
81232;BME280;70703;55.652;37.710;2023-11-19T00:22:04;101149.63;;;-4.47;59.32
81232;BME280;70703;55.652;37.710;2023-11-19T00:22:16;101158.38;;;-4.49;59.06
81232;BME280;70703;55.652;37.710;2023-11-19T00:22:28;101125.91;;;-4.65;59.51
81232;BME280;70703;55.652;37.710;2023-11-19T00:22:42;101157.41;;;-4.46;59.49
81232;BME280;70703;55.652;37.710;2023-11-19T00:22:55;101148.84;;;-4.50;59.40
81232;BME280;70703;55.652;37.710;2023-11-19T00:23:07;101147.03;;;-4.47;59.42
81232;BME280;70703;55.652;37.710;2023-11-19T00:23:19;101154.78;;;-4.46;59.36
81232;BME280;70703;55.652;37.710;2023-11-19T00:23:32;101156.56;;;-4.46;59.39
81232;BME280;70703;55.652;37.710;2023-11-19T00:23:45;101151.41;;;-4.48;59.71
81232;BME280;70703;55.652;37.710;2023-11-19T00:23:56;101146.13;;;-4.46;59.48
81232;BME280;70703;55.652;37.710;2023-11-19T00:24:09;101152.19;;;-4.46;59.67
81232;BME280;70703;55.652;37.710;2023-11-19T00:24:23;101143.56;;;-4.48;59.63
81232;BME280;70703;55.652;37.710;2023-11-19T00:24:34;101148.66;;;-4.45;59.59
81232;BME280;70703;55.652;37.710;2023-11-19T00:24:48;101154.72;;;-4.44;59.82
81232;BME280;70703;55.652;37.710;2023-11-19T00:25:01;101153.03;;;-4.45;59.64
81232;BME280;70703;55.652;37.710;2023-11-19T00:25:14;101151.28;;;-4.45;59.77
81232;BME280;70703;55.652;37.710;2023-11-19T00:25:26;101149.50;;;-4.44;59.54
81232;BME280;70703;55.652;37.710;2023-11-19T00:25:37;101144.28;;;-4.44;59.80
81232;BME280;70703;55.652;37.710;2023-11-19T00:25:50;101143.56;;;-4.48;59.42
81232;BME280;70703;55.652;37.710;2023-11-19T00:26:03;101145.16;;;-4.44;59.29
81232;BME280;70703;55.652;37.710;2023-11-19T00:26:17;101153.84;;;-4.43;59.15
81232;BME280;70703;55.652;37.710;2023-11-19T00:26:34;101151.22;;;-4.43;59.20
81232;BME280;70703;55.652;37.710;2023-11-19T00:26:47;101153.84;;;-4.43;59.27
81232;BME280;70703;55.652;37.710;2023-11-19T00:27:00;101150.41;;;-4.45;58.93
81232;BME280;70703;55.652;37.710;2023-11-19T00:27:12;101130.78;;;-4.56;59.32
81232;BME280;70703;55.652;37.710;2023-11-19T00:27:24;101141.00;;;-4.50;59.13
81232;BME280;70703;55.652;37.710;2023-11-19T00:27:36;101141.00;;;-4.50;59.06
81232;BME280;70703;55.652;37.710;2023-11-19T00:27:49;101140.78;;;-4.43;58.78
81232;BME280;70703;55.652;37.710;2023-11-19T00:28:02;101150.31;;;-4.42;58.67
81232;BME280;70703;55.652;37.710;2023-11-19T00:28:14;101142.56;;;-4.45;58.70
81232;BME280;70703;55.652;37.710;2023-11-19T00:28:27;101154.59;;;-4.41;59.07
81232;BME280;70703;55.652;37.710;2023-11-19T00:28:40;101156.31;;;-4.40;58.96
81232;BME280;70703;55.652;37.710;2023-11-19T00:28:54;101120.56;;;-4.62;59.08
81232;BME280;70703;55.652;37.710;2023-11-19T00:29:07;101156.31;;;-4.40;59.35
81232;BME280;70703;55.652;37.710;2023-11-19T00:29:19;101133.28;;;-4.53;59.33
81232;BME280;70703;55.652;37.710;2023-11-19T00:29:31;101150.13;;;-4.38;59.26
81232;BME280;70703;55.652;37.710;2023-11-19T00:29:43;101148.50;;;-4.40;59.29
81232;BME280;70703;55.652;37.710;2023-11-19T00:29:55;101151.94;;;-4.40;59.36
81232;BME280;70703;55.652;37.710;2023-11-19T00:30:08;101146.69;;;-4.38;59.50
81232;BME280;70703;55.652;37.710;2023-11-19T00:30:20;101146.69;;;-4.38;59.42
81232;BME280;70703;55.652;37.710;2023-11-19T00:30:32;101142.31;;;-4.38;59.20
81232;BME280;70703;55.652;37.710;2023-11-19T00:30:45;101112.81;;;-4.63;59.55
81232;BME280;70703;55.652;37.710;2023-11-19T00:30:58;101140.78;;;-4.43;59.37
81232;BME280;70703;55.652;37.710;2023-11-19T00:31:11;101145.75;;;-4.37;59.28
81232;BME280;70703;55.652;37.710;2023-11-19T00:31:24;101146.63;;;-4.37;59.50
81232;BME280;70703;55.652;37.710;2023-11-19T00:31:37;101138.84;;;-4.38;59.32
81232;BME280;70703;55.652;37.710;2023-11-19T00:31:49;101144.97;;;-4.39;58.84
81232;BME280;70703;55.652;37.710;2023-11-19T00:32:02;101144.91;;;-4.38;59.15
81232;BME280;70703;55.652;37.710;2023-11-19T00:32:14;101126.25;;;-4.51;59.21
81232;BME280;70703;55.652;37.710;2023-11-19T00:32:26;101140.03;;;-4.47;58.90
81232;BME280;70703;55.652;37.710;2023-11-19T00:32:37;101139.06;;;-4.44;59.24
81232;BME280;70703;55.652;37.710;2023-11-19T00:32:51;101142.41;;;-4.41;59.18
81232;BME280;70703;55.652;37.710;2023-11-19T00:33:05;101143.19;;;-4.39;59.06
81232;BME280;70703;55.652;37.710;2023-11-19T00:33:17;101138.94;;;-4.41;58.97
81232;BME280;70703;55.652;37.710;2023-11-19T00:33:29;101142.38;;;-4.39;58.85
81232;BME280;70703;55.652;37.710;2023-11-19T00:33:42;101140.66;;;-4.40;59.02
81232;BME280;70703;55.652;37.710;2023-11-19T00:33:55;101112.63;;;-4.59;58.85
81232;BME280;70703;55.652;37.710;2023-11-19T00:34:09;101118.63;;;-4.57;58.93
81232;BME280;70703;55.652;37.710;2023-11-19T00:34:22;101135.56;;;-4.43;59.15
81232;BME280;70703;55.652;37.710;2023-11-19T00:34:35;101139.75;;;-4.39;59.07
81232;BME280;70703;55.652;37.710;2023-11-19T00:34:47;101144.06;;;-4.38;58.87
81232;BME280;70703;55.652;37.710;2023-11-19T00:34:59;101138.84;;;-4.38;58.46
81232;BME280;70703;55.652;37.710;2023-11-19T00:35:12;101133.63;;;-4.38;58.84
81232;BME280;70703;55.652;37.710;2023-11-19T00:35:25;101144.91;;;-4.38;59.23
81232;BME280;70703;55.652;37.710;2023-11-19T00:35:37;101139.69;;;-4.38;58.90
81232;BME280;70703;55.652;37.710;2023-11-19T00:35:48;101142.25;;;-4.36;59.27
81232;BME280;70703;55.652;37.710;2023-11-19T00:35:59;101137.00;;;-4.36;59.02
81232;BME280;70703;55.652;37.710;2023-11-19T00:36:12;101140.47;;;-4.36;59.09
81232;BME280;70703;55.652;37.710;2023-11-19T00:36:24;101143.09;;;-4.36;58.94
81232;BME280;70703;55.652;37.710;2023-11-19T00:36:36;101131.91;;;-4.39;59.13
81232;BME280;70703;55.652;37.710;2023-11-19T00:36:48;101148.31;;;-4.36;58.92
81232;BME280;70703;55.652;37.710;2023-11-19T00:37:00;101143.94;;;-4.35;59.16
81232;BME280;70703;55.652;37.710;2023-11-19T00:37:15;101139.81;;;-4.41;59.28
81232;BME280;70703;55.652;37.710;2023-11-19T00:37:27;101150.84;;;-4.34;58.90
81232;BME280;70703;55.652;37.710;2023-11-19T00:37:40;101143.94;;;-4.35;59.31
81232;BME280;70703;55.652;37.710;2023-11-19T00:37:54;101145.63;;;-4.34;59.04
81232;BME280;70703;55.652;37.710;2023-11-19T00:38:06;101130.31;;;-4.43;59.18
81232;BME280;70703;55.652;37.710;2023-11-19T00:38:18;101120.22;;;-4.53;59.22
81232;BME280;70703;55.652;37.710;2023-11-19T00:38:30;101143.00;;;-4.33;59.20
81232;BME280;70703;55.652;37.710;2023-11-19T00:38:41;101150.75;;;-4.31;59.19
81232;BME280;70703;55.652;37.710;2023-11-19T00:38:53;101113.19;;;-4.51;59.48
81232;BME280;70703;55.652;37.710;2023-11-19T00:39:05;101130.16;;;-4.39;59.38
81232;BME280;70703;55.652;37.710;2023-11-19T00:39:16;101131.09;;;-4.41;59.49
81232;BME280;70703;55.652;37.710;2023-11-19T00:39:29;101124.47;;;-4.50;59.13
81232;BME280;70703;55.652;37.710;2023-11-19T00:39:41;101141.16;;;-4.30;59.15
81232;BME280;70703;55.652;37.710;2023-11-19T00:39:53;101141.22;;;-4.32;59.07
81232;BME280;70703;55.652;37.710;2023-11-19T00:40:07;101138.59;;;-4.32;59.37
81232;BME280;70703;55.652;37.710;2023-11-19T00:40:21;101138.66;;;-4.34;59.32
81232;BME280;70703;55.652;37.710;2023-11-19T00:40:34;101141.16;;;-4.30;59.42
81232;BME280;70703;55.652;37.710;2023-11-19T00:40:47;101103.78;;;-4.55;59.46
81232;BME280;70703;55.652;37.710;2023-11-19T00:40:58;101125.78;;;-4.38;59.25
81232;BME280;70703;55.652;37.710;2023-11-19T00:41:10;101149.84;;;-4.30;59.39
81232;BME280;70703;55.652;37.710;2023-11-19T00:41:23;101139.31;;;-4.28;59.45
81232;BME280;70703;55.652;37.710;2023-11-19T00:41:37;101145.53;;;-4.31;59.05
81232;BME280;70703;55.652;37.710;2023-11-19T00:41:49;101124.84;;;-4.37;59.07
81232;BME280;70703;55.652;37.710;2023-11-19T00:42:01;101129.94;;;-4.33;59.60
81232;BME280;70703;55.652;37.710;2023-11-19T00:42:13;101138.47;;;-4.29;59.42
81232;BME280;70703;55.652;37.710;2023-11-19T00:42:25;101137.59;;;-4.28;59.12
81232;BME280;70703;55.652;37.710;2023-11-19T00:42:36;101133.25;;;-4.29;59.63
81232;BME280;70703;55.652;37.710;2023-11-19T00:42:50;101139.22;;;-4.25;59.09
81232;BME280;70703;55.652;37.710;2023-11-19T00:43:02;101141.84;;;-4.25;59.07
81232;BME280;70703;55.652;37.710;2023-11-19T00:43:15;101135.69;;;-4.24;59.36
81232;BME280;70703;55.652;37.710;2023-11-19T00:43:28;101140.97;;;-4.26;58.87
81232;BME280;70703;55.652;37.710;2023-11-19T00:43:40;101134.09;;;-4.28;59.24
81232;BME280;70703;55.652;37.710;2023-11-19T00:43:52;101071.88;;;-4.63;59.12
81232;BME280;70703;55.652;37.710;2023-11-19T00:44:04;101143.59;;;-4.26;58.72
81232;BME280;70703;55.652;37.710;2023-11-19T00:44:17;101140.06;;;-4.25;59.22
81232;BME280;70703;55.652;37.710;2023-11-19T00:44:31;101143.59;;;-4.26;58.72
81232;BME280;70703;55.652;37.710;2023-11-19T00:44:43;101098.31;;;-4.49;58.86
81232;BME280;70703;55.652;37.710;2023-11-19T00:44:55;101137.47;;;-4.25;59.18
81232;BME280;70703;55.652;37.710;2023-11-19T00:45:10;101140.91;;;-4.24;59.29
81232;BME280;70703;55.652;37.710;2023-11-19T00:45:23;101137.53;;;-4.26;58.90
81232;BME280;70703;55.652;37.710;2023-11-19T00:45:38;101119.63;;;-4.37;59.27
81232;BME280;70703;55.652;37.710;2023-11-19T00:45:52;101137.47;;;-4.25;58.81
81232;BME280;70703;55.652;37.710;2023-11-19T00:46:07;101114.53;;;-4.40;59.27
81232;BME280;70703;55.652;37.710;2023-11-19T00:46:19;101129.88;;;-4.31;59.20
81232;BME280;70703;55.652;37.710;2023-11-19T00:46:31;101093.31;;;-4.55;59.31
81232;BME280;70703;55.652;37.710;2023-11-19T00:46:44;101134.06;;;-4.27;59.41
81232;BME280;70703;55.652;37.710;2023-11-19T00:46:56;101134.84;;;-4.25;59.09
81232;BME280;70703;55.652;37.710;2023-11-19T00:47:08;101137.59;;;-4.28;59.25
81232;BME280;70703;55.652;37.710;2023-11-19T00:47:20;101135.81;;;-4.27;59.23
81232;BME280;70703;55.652;37.710;2023-11-19T00:47:34;101078.81;;;-4.62;59.12
81232;BME280;70703;55.652;37.710;2023-11-19T00:47:46;101130.59;;;-4.27;59.27
81232;BME280;70703;55.652;37.710;2023-11-19T00:47:58;101120.44;;;-4.35;59.50
81232;BME280;70703;55.652;37.710;2023-11-19T00:48:10;101134.06;;;-4.27;59.02
81232;BME280;70703;55.652;37.710;2023-11-19T00:48:22;101133.06;;;-4.24;59.19
81232;BME280;70703;55.652;37.710;2023-11-19T00:48:34;101090.72;;;-4.55;59.32
81232;BME280;70703;55.652;37.710;2023-11-19T00:48:46;101118.56;;;-4.32;58.76
81232;BME280;70703;55.652;37.710;2023-11-19T00:48:59;101128.84;;;-4.27;58.85
81232;BME280;70703;55.652;37.710;2023-11-19T00:49:13;101126.22;;;-4.27;59.17
81232;BME280;70703;55.652;37.710;2023-11-19T00:49:26;101105.88;;;-4.41;59.20
81232;BME280;70703;55.652;37.710;2023-11-19T00:49:38;101130.47;;;-4.24;58.68
81232;BME280;70703;55.652;37.710;2023-11-19T00:49:51;101138.28;;;-4.24;58.68
81232;BME280;70703;55.652;37.710;2023-11-19T00:50:03;101127.06;;;-4.26;58.95
81232;BME280;70703;55.652;37.710;2023-11-19T00:50:16;101130.47;;;-4.24;59.01
81232;BME280;70703;55.652;37.710;2023-11-19T00:50:29;101142.63;;;-4.23;58.93
81232;BME280;70703;55.652;37.710;2023-11-19T00:50:43;101109.31;;;-4.40;58.69
81232;BME280;70703;55.652;37.710;2023-11-19T00:50:56;101136.56;;;-4.24;58.89
81232;BME280;70703;55.652;37.710;2023-11-19T00:51:08;101116.81;;;-4.31;58.54
81232;BME280;70703;55.652;37.710;2023-11-19T00:51:19;101123.66;;;-4.28;58.79
81232;BME280;70703;55.652;37.710;2023-11-19T00:51:31;101130.47;;;-4.24;58.81
81232;BME280;70703;55.652;37.710;2023-11-19T00:51:42;101125.22;;;-4.24;58.78
81232;BME280;70703;55.652;37.710;2023-11-19T00:51:57;101133.94;;;-4.24;58.83
81232;BME280;70703;55.652;37.710;2023-11-19T00:52:12;101123.50;;;-4.24;58.38
81232;BME280;70703;55.652;37.710;2023-11-19T00:52:25;101131.34;;;-4.24;58.46
81232;BME280;70703;55.652;37.710;2023-11-19T00:52:36;101128.72;;;-4.24;58.68
81232;BME280;70703;55.652;37.710;2023-11-19T00:52:49;101130.41;;;-4.23;58.62
81232;BME280;70703;55.652;37.710;2023-11-19T00:53:02;101095.47;;;-4.42;58.40
81232;BME280;70703;55.652;37.710;2023-11-19T00:53:15;101117.47;;;-4.26;58.68
81232;BME280;70703;55.652;37.710;2023-11-19T00:53:27;101115.78;;;-4.27;58.84
81232;BME280;70703;55.652;37.710;2023-11-19T00:53:38;101121.78;;;-4.25;58.70
81232;BME280;70703;55.652;37.710;2023-11-19T00:53:51;101124.41;;;-4.25;58.44
81232;BME280;70703;55.652;37.710;2023-11-19T00:54:04;101120.88;;;-4.24;58.41
81232;BME280;70703;55.652;37.710;2023-11-19T00:54:16;101101.34;;;-4.37;58.86
81232;BME280;70703;55.652;37.710;2023-11-19T00:54:28;101127.84;;;-4.24;58.64
81232;BME280;70703;55.652;37.710;2023-11-19T00:54:40;101102.16;;;-4.35;58.51
81232;BME280;70703;55.652;37.710;2023-11-19T00:54:52;101109.94;;;-4.34;58.51
81232;BME280;70703;55.652;37.710;2023-11-19T00:55:04;101126.94;;;-4.23;58.59
81232;BME280;70703;55.652;37.710;2023-11-19T00:55:17;101123.50;;;-4.24;58.71
81232;BME280;70703;55.652;37.710;2023-11-19T00:55:29;101126.16;;;-4.25;58.41
81232;BME280;70703;55.652;37.710;2023-11-19T00:55:42;101127.78;;;-4.23;58.66
81232;BME280;70703;55.652;37.710;2023-11-19T00:55:55;101116.50;;;-4.23;58.87
81232;BME280;70703;55.652;37.710;2023-11-19T00:56:08;101120.88;;;-4.24;58.77
81232;BME280;70703;55.652;37.710;2023-11-19T00:56:24;101118.22;;;-4.22;58.95
81232;BME280;70703;55.652;37.710;2023-11-19T00:56:36;101113.94;;;-4.25;58.36
81232;BME280;70703;55.652;37.710;2023-11-19T00:56:48;101074.94;;;-4.52;58.45
81232;BME280;70703;55.652;37.710;2023-11-19T00:56:59;101098.81;;;-4.39;58.56
81232;BME280;70703;55.652;37.710;2023-11-19T00:57:12;101116.50;;;-4.23;58.57
81232;BME280;70703;55.652;37.710;2023-11-19T00:57:25;101114.06;;;-4.28;58.18
81232;BME280;70703;55.652;37.710;2023-11-19T00:57:38;101120.06;;;-4.26;58.51
81232;BME280;70703;55.652;37.710;2023-11-19T00:57:50;101116.69;;;-4.28;58.06
81232;BME280;70703;55.652;37.710;2023-11-19T00:58:03;101127.78;;;-4.23;58.15
81232;BME280;70703;55.652;37.710;2023-11-19T00:58:15;101120.88;;;-4.24;58.29
81232;BME280;70703;55.652;37.710;2023-11-19T00:58:28;101123.44;;;-4.22;58.13
81232;BME280;70703;55.652;37.710;2023-11-19T00:58:41;101124.34;;;-4.23;58.01
81232;BME280;70703;55.652;37.710;2023-11-19T00:58:53;101103.75;;;-4.31;58.14
81232;BME280;70703;55.652;37.710;2023-11-19T00:59:05;101126.94;;;-4.23;58.11
81232;BME280;70703;55.652;37.710;2023-11-19T00:59:17;101122.56;;;-4.23;57.93
81232;BME280;70703;55.652;37.710;2023-11-19T00:59:28;101114.84;;;-4.26;57.96
81232;BME280;70703;55.652;37.710;2023-11-19T00:59:42;101121.72;;;-4.23;57.97
81232;BME280;70703;55.652;37.710;2023-11-19T00:59:54;101114.06;;;-4.28;58.30
81232;BME280;70703;55.652;37.710;2023-11-19T01:00:11;101119.09;;;-4.23;57.96
81232;BME280;70703;55.652;37.710;2023-11-19T01:00:29;101112.22;;;-4.26;58.05
81232;BME280;70703;55.652;37.710;2023-11-19T01:00:43;101119.03;;;-4.22;58.06
81232;BME280;70703;55.652;37.710;2023-11-19T01:00:56;101127.75;;;-4.21;58.00
81232;BME280;70703;55.652;37.710;2023-11-19T01:01:09;101125.06;;;-4.20;58.20
81232;BME280;70703;55.652;37.710;2023-11-19T01:01:21;101127.69;;;-4.20;58.56
81232;BME280;70703;55.652;37.710;2023-11-19T01:01:33;101097.72;;;-4.33;58.02
81232;BME280;70703;55.652;37.710;2023-11-19T01:01:46;101127.69;;;-4.20;58.12
81232;BME280;70703;55.652;37.710;2023-11-19T01:01:59;101114.72;;;-4.23;58.40
81232;BME280;70703;55.652;37.710;2023-11-19T01:02:14;101128.47;;;-4.18;57.91
81232;BME280;70703;55.652;37.710;2023-11-19T01:02:27;101119.03;;;-4.22;57.94
81232;BME280;70703;55.652;37.710;2023-11-19T01:02:41;101122.47;;;-4.20;57.90
81232;BME280;70703;55.652;37.710;2023-11-19T01:02:53;101125.00;;;-4.18;57.87
81232;BME280;70703;55.652;37.710;2023-11-19T01:03:05;101126.75;;;-4.19;57.74
81232;BME280;70703;55.652;37.710;2023-11-19T01:03:18;101120.75;;;-4.21;57.75
81232;BME280;70703;55.652;37.710;2023-11-19T01:03:31;101111.28;;;-4.23;58.10
81232;BME280;70703;55.652;37.710;2023-11-19T01:03:43;101124.22;;;-4.20;57.82
81232;BME280;70703;55.652;37.710;2023-11-19T01:03:56;101098.63;;;-4.34;58.09
81232;BME280;70703;55.652;37.710;2023-11-19T01:04:08;101122.47;;;-4.20;58.28
81232;BME280;70703;55.652;37.710;2023-11-19T01:04:22;101125.84;;;-4.18;58.18
81232;BME280;70703;55.652;37.710;2023-11-19T01:04:35;101116.38;;;-4.20;58.13
81232;BME280;70703;55.652;37.710;2023-11-19T01:04:48;101117.25;;;-4.20;58.04
81232;BME280;70703;55.652;37.710;2023-11-19T01:05:00;101118.16;;;-4.21;58.20
81232;BME280;70703;55.652;37.710;2023-11-19T01:05:13;101120.75;;;-4.21;58.11
81232;BME280;70703;55.652;37.710;2023-11-19T01:05:25;101116.50;;;-4.23;58.01